Time;durP1;ratioP1;P1;durP2;ratioP2;P2;SDS_P1;SDS_P2;PMS_P1;PMS_P2;Temp;Humidity;BMP_temperature;BMP_pressure;BME280_temperature;BME280_humidity;BME280_pressure;Samples;Min_cycle;Max_cycle;Signal;HPM_P1;HPM_P2
2022/05/28 00:00:34;;;;;;;1.83;1.65;;;;;;;21.22;54.18;94257.09;2618392;54;20264;-81
2022/05/28 00:03:18;;;;;;;2.08;1.92;;;;;;;20.63;53.35;94135.63;2618257;54;20145;-82
2022/05/28 00:05:51;;;;;;;1.88;1.75;;;;;;;22.50;51.61;94304.00;2618317;54;20145;-81
2022/05/28 00:08:26;;;;;;;2.63;1.92;;;;;;;21.17;50.86;94068.56;2617942;54;20172;-82
2022/05/28 00:11:01;;;;;;;1.58;1.48;;;;;;;22.10;50.47;94177.84;2618215;47;20148;-78
2022/05/28 00:13:44;;;;;;;2.30;1.25;;;;;;;23.05;50.17;94294.28;2618114;54;20144;-79
2022/05/28 00:16:19;;;;;;;1.42;1.30;;;;;;;22.21;49.83;94190.59;2617875;47;20150;-79
2022/05/28 00:19:00;;;;;;;2.35;1.90;;;;;;;21.08;50.61;94070.13;2617942;54;20157;-79
2022/05/28 00:21:35;;;;;;;1.80;1.63;;;;;;;21.24;52.69;94172.84;2618529;54;20149;-79
2022/05/28 00:24:17;;;;;;;2.20;2.10;;;;;;;21.34;51.98;94164.03;2618036;46;20175;-80
2022/05/28 00:26:51;;;;;;;4.45;1.80;;;;;;;20.33;53.39;94097.16;2617761;47;20161;-80
2022/05/28 00:29:41;;;;;;;2.08;1.95;;;;;;;18.92;55.88;94004.72;2618080;54;20149;-79
2022/05/28 00:32:25;;;;;;;2.75;2.28;;;;;;;18.66;57.89;94043.69;2618055;54;20156;-80
2022/05/28 00:34:54;;;;;;;1.73;1.63;;;;;;;19.00;56.25;94001.75;2617753;54;20144;-80
2022/05/28 00:37:36;;;;;;;2.13;2.03;;;;;;;19.41;56.24;94057.31;2617519;47;20188;-80
2022/05/28 00:40:18;;;;;;;2.35;2.15;;;;;;;18.58;56.75;94000.00;2617768;47;20148;-79
2022/05/28 00:42:50;;;;;;;2.97;1.80;;;;;;;18.47;57.99;94008.66;2617861;54;20205;-79
2022/05/28 00:45:22;;;;;;;2.40;2.10;;;;;;;19.43;59.27;94194.41;2618066;54;20160;-79
2022/05/28 00:48:07;;;;;;;1.90;1.80;;;;;;;18.31;58.61;93985.16;2617619;47;20179;-81
2022/05/28 00:50:43;;;;;;;2.07;1.83;;;;;;;17.43;60.71;93956.31;2617720;47;20133;-82
2022/05/28 00:53:22;;;;;;;2.73;1.80;;;;;;;19.04;57.93;94062.00;2617471;54;20172;-81
2022/05/28 00:55:57;;;;;;;2.83;2.17;;;;;;;19.21;59.13;94145.81;2617721;54;20228;-82
2022/05/28 00:58:28;;;;;;;2.45;2.28;;;;;;;19.27;59.74;94180.91;2617750;47;20137;-81
2022/05/28 01:01:09;;;;;;;2.95;2.75;;;;;;;18.87;60.81;94150.34;2617673;54;20156;-79
2022/05/28 01:04:03;;;;;;;2.37;2.27;;;;;;;17.12;62.05;93957.88;2618167;39;20535;-79
2022/05/28 01:06:42;;;;;;;2.47;2.27;;;;;;;17.57;60.23;93938.34;2617685;47;20160;-79
2022/05/28 01:15:11;;;;;;;3.53;1.92;;;;;;;21.60;54.13;94272.38;2617765;54;20148;-79
2022/05/28 01:17:58;;;;;;;1.75;1.65;;;;;;;20.95;52.69;94126.47;2617838;47;20248;-82
2022/05/28 01:20:43;;;;;;;1.20;1.20;;;;;;;21.75;52.44;94223.84;2617972;39;20478;-83
2022/05/28 01:23:35;;;;;;;2.33;2.13;;;;;;;21.39;53.17;94242.47;2617328;47;20148;-79
2022/05/28 01:26:20;;;;;;;1.85;1.70;;;;;;;19.08;55.40;94059.09;2618142;39;20573;-82
2022/05/28 01:29:16;;;;;;;2.58;2.30;;;;;;;18.99;56.49;94107.25;2617713;54;20317;-82
2022/05/28 01:31:49;;;;;;;1.43;1.33;;;;;;;19.24;56.76;94158.69;2617916;54;20284;-79
2022/05/28 01:34:36;;;;;;;1.97;1.63;;;;;;;19.61;56.17;94177.03;2617515;47;20160;-80
2022/05/28 01:37:26;;;;;;;;;;;;;;;;;;;;;
2022/05/28 01:40:14;;;;;;;1.70;1.42;;;;;;;18.98;55.55;94073.53;2617440;54;20265;-78
2022/05/28 01:43:08;;;;;;;2.20;1.55;;;;;;;20.30;54.61;94241.72;2617392;47;20156;-81
2022/05/28 01:46:05;;;;;;;1.33;1.27;;;;;;;20.77;54.51;94267.78;2617512;54;20145;-81
2022/05/28 01:48:46;;;;;;;1.70;1.60;;;;;;;19.11;54.29;94032.50;2617304;47;20157;-79
2022/05/28 01:51:32;;;;;;;1.42;1.42;;;;;;;19.99;53.87;94114.84;2617460;47;20170;-81
2022/05/28 01:54:31;;;;;;;1.83;1.63;;;;;;;19.52;53.31;94018.44;2617545;47;20180;-81
2022/05/28 01:57:10;;;;;;;2.20;1.65;;;;;;;19.97;52.78;94046.59;2617153;54;20633;-79
2022/05/28 01:59:50;;;;;;;1.88;1.70;;;;;;;20.41;52.27;94119.38;2617293;54;20192;-79
2022/05/28 02:02:45;;;;;;;1.38;1.30;;;;;;;19.87;53.65;94107.81;2617318;54;20157;-82
2022/05/28 02:11:04;;;;;;;1.73;1.63;;;;;;;19.60;54.52;94192.84;2617864;47;20164;-79
2022/05/28 02:14:05;;;;;;;1.80;1.57;;;;;;;18.77;54.46;94053.63;2618110;54;20145;-79
2022/05/28 02:16:53;;;;;;;3.30;1.60;;;;;;;18.42;55.08;94030.22;2618663;39;20685;-79
2022/05/28 02:19:47;;;;;;;16.13;1.60;;;;;;;19.02;52.54;94111.50;2618529;47;20653;-80
2022/05/28 02:25:15;;;;;;;1.60;1.50;;;;;;;19.27;53.08;94076.84;2618113;47;20181;-82
2022/05/28 02:28:03;;;;;;;;;;;;;;;;;;;;;
2022/05/28 02:30:56;;;;;;;1.80;1.30;;;;;;;19.30;50.99;94061.72;2617914;54;20153;-79
2022/05/28 02:34:14;;;;;;;1.58;1.48;;;;;;;19.11;50.37;94038.25;2618081;54;20188;-79
2022/05/28 02:36:59;;;;;;;1.80;1.42;;;;;;;19.82;51.57;94126.53;2618010;54;20256;-79
2022/05/28 02:39:47;;;;;;;1.15;1.05;;;;;;;21.05;51.38;94273.16;2617946;47;20149;-79
2022/05/28 02:42:29;;;;;;;2.78;1.20;;;;;;;20.73;50.04;94228.25;2618245;54;20164;-82
2022/05/28 02:45:16;;;;;;;4.15;1.90;;;;;;;21.38;50.48;94298.66;2618612;54;20171;-82
2022/05/28 02:48:02;;;;;;;1.00;1.00;;;;;;;20.58;52.01;94150.06;2618075;54;20156;-79
2022/05/28 02:50:42;;;;;;;1.08;1.08;;;;;;;21.05;51.33;94186.06;2618025;54;20199;-79
2022/05/28 02:53:28;;;;;;;1.33;1.25;;;;;;;21.97;50.34;94278.25;2618368;47;20167;-80
2022/05/28 02:56:03;;;;;;;1.52;0.75;;;;;;;21.69;51.23;94238.38;2617938;54;21033;-82
2022/05/28 02:58:53;;;;;;;;;;;;;;;;;;;;;
2022/05/28 03:01:44;;;;;;;1.10;1.10;;;;;;;22.22;48.90;94276.38;2618185;47;20173;-80
2022/05/28 03:04:28;;;;;;;1.30;1.30;;;;;;;22.00;47.77;94296.25;2618221;54;20172;-79
2022/05/28 03:07:14;;;;;;;1.17;1.17;;;;;;;19.47;50.06;94027.81;2618102;47;20175;-79
2022/05/28 03:09:49;;;;;;;1.48;1.38;;;;;;;19.72;52.14;94146.75;2618036;47;21059;-81
2022/05/28 03:12:27;;;;;;;2.03;1.20;;;;;;;18.76;54.18;94126.06;2618113;47;20144;-79
2022/05/28 03:15:11;;;;;;;2.00;1.83;;;;;;;17.05;56.27;94009.41;2618274;54;20220;-79
2022/05/28 03:18:02;;;;;;;3.60;1.05;;;;;;;17.58;56.66;94046.44;2618302;54;20193;-81
2022/05/28 03:20:47;;;;;;;1.97;1.30;;;;;;;18.15;56.58;94126.41;2618014;54;20141;-82
2022/05/28 03:23:29;;;;;;;1.07;0.97;;;;;;;18.67;56.01;94208.59;2618336;47;20176;-79
2022/05/28 03:26:30;;;;;;;1.43;1.33;;;;;;;17.46;55.26;94037.91;2618319;54;20204;-79
2022/05/28 03:29:10;;;;;;;4.77;0.93;;;;;;;17.33;57.22;94053.69;2617883;54;20192;-78
2022/05/28 03:31:49;;;;;;;1.20;1.20;;;;;;;19.03;57.46;94293.03;2618027;47;20196;-81
2022/05/28 03:34:28;;;;;;;1.27;1.27;;;;;;;17.05;58.46;94020.13;2617884;47;20729;-83
2022/05/28 03:37:00;;;;;;;1.40;0.97;;;;;;;17.11;58.90;94079.47;2617957;47;20188;-80
2022/05/28 03:45:21;;;;;;;1.33;1.23;;;;;;;17.79;58.33;94081.44;2618131;47;20144;-80
2022/05/28 03:47:55;;;;;;;1.53;1.40;;;;;;;18.67;57.84;94173.47;2617923;54;20679;-79
2022/05/28 03:50:32;;;;;;;1.23;1.23;;;;;;;18.96;57.55;94229.22;2618261;39;20188;-79
2022/05/28 03:53:15;;;;;;;1.47;1.47;;;;;;;18.17;57.42;94109.22;2618417;39;20550;-82
2022/05/28 03:56:04;;;;;;;1.40;1.33;;;;;;;19.03;58.41;94265.03;2618072;47;20145;-82
2022/05/28 04:01:38;;;;;;;1.70;1.60;;;;;;;18.08;61.81;94199.50;2617943;46;20156;-82
2022/05/28 04:04:19;;;;;;;2.33;1.83;;;;;;;16.98;61.83;94070.91;2617675;47;20669;-81
2022/05/28 04:07:12;;;;;;;2.00;1.87;;;;;;;18.40;61.97;94268.19;2617907;54;20157;-80
2022/05/28 04:09:45;;;;;;;1.70;1.60;;;;;;;17.88;61.13;94142.28;2617468;54;20145;-81
2022/05/28 04:12:26;;;;;;;1.33;1.23;;;;;;;17.95;60.17;94130.06;2617689;54;20148;-79
2022/05/28 04:15:06;;;;;;;3.97;1.57;;;;;;;18.75;60.24;94187.75;2617952;47;20145;-79
2022/05/28 04:17:37;;;;;;;2.40;1.60;;;;;;;19.20;58.94;94184.56;2618419;54;20165;-79
2022/05/28 04:23:24;;;;;;;1.40;1.30;;;;;;;19.17;54.55;94015.22;2618044;54;20164;-79
2022/05/28 04:26:04;;;;;;;3.90;1.35;;;;;;;19.47;52.42;94048.63;2617663;47;20152;-79
2022/05/28 04:28:47;;;;;;;2.40;1.27;;;;;;;21.28;51.36;94311.03;2617987;54;20152;-79
2022/05/28 04:31:29;;;;;;;;;;;;;;;;;;;;;
2022/05/28 04:34:01;;;;;;;8.82;1.23;;;;;;;18.77;53.16;94090.19;2617643;54;20149;-79
2022/05/28 04:36:39;;;;;;;1.30;1.20;;;;;;;18.41;57.05;94108.34;2617596;47;20267;-82
2022/05/28 04:39:25;;;;;;;1.73;1.63;;;;;;;18.40;56.69;94101.19;2617915;54;20275;-81
2022/05/28 04:41:58;;;;;;;1.13;1.13;;;;;;;18.16;59.34;94173.69;2617523;54;20188;-82
2022/05/28 04:44:42;;;;;;;1.50;1.40;;;;;;;17.84;60.34;94160.19;2617363;47;20165;-82
2022/05/28 04:47:38;;;;;;;1.77;1.67;;;;;;;16.85;61.58;94034.47;2616833;47;20368;-82
2022/05/28 04:50:17;;;;;;;1.57;1.47;;;;;;;17.66;61.02;94123.72;2617938;39;20869;-81
2022/05/28 04:52:52;;;;;;;2.80;1.00;;;;;;;17.10;61.98;94018.66;2617955;39;20553;-78
2022/05/28 04:58:33;;;;;;;3.20;1.43;;;;;;;19.14;56.82;94130.78;2617478;47;20248;-81
2022/05/28 05:01:12;;;;;;;1.60;1.50;;;;;;;20.09;55.19;94232.59;2617076;47;20369;-81
2022/05/28 05:04:05;;;;;;;3.88;1.50;;;;;;;20.10;56.35;94236.88;2617424;54;20696;-81
2022/05/28 05:06:43;;;;;;;1.55;1.00;;;;;;;20.84;55.24;94318.06;2617444;47;20157;-81
2022/05/28 05:12:50;;;;;;;3.60;1.48;;;;;;;18.83;56.38;94070.06;2617224;47;20668;-79
2022/05/28 05:15:40;;;;;;;3.50;1.20;;;;;;;18.32;62.01;94147.81;2616550;47;20145;-79
2022/05/28 05:18:24;;;;;;;1.60;1.30;;;;;;;18.86;61.84;94220.66;2617419;54;20149;-81
2022/05/28 05:21:13;;;;;;;7.33;1.50;;;;;;;19.61;63.91;94322.84;2617342;54;20148;-82
2022/05/28 05:23:52;;;;;;;1.57;1.47;;;;;;;18.41;64.31;94258.16;2617516;54;20160;-81
2022/05/28 05:26:36;;;;;;;1.40;1.40;;;;;;;16.81;65.30;94088.81;2617453;47;20160;-79
2022/05/28 05:29:29;;;;;;;1.30;1.30;;;;;;;16.25;66.79;94041.59;2617264;54;20208;-78
2022/05/28 05:35:03;;;;;;;2.53;2.03;;;;;;;16.06;67.50;94040.88;2617172;47;20175;-79
2022/05/28 05:37:52;;;;;;;1.90;1.80;;;;;;;17.07;68.80;94240.44;2616655;54;20242;-81
2022/05/28 05:40:37;;;;;;;2.57;2.17;;;;;;;16.53;69.11;94121.66;2618143;39;20213;-82
2022/05/28 05:43:19;;;;;;;2.03;1.87;;;;;;;17.61;67.00;94198.91;2617194;54;20152;-81
2022/05/28 05:46:00;;;;;;;9.80;2.10;;;;;;;17.25;64.64;94065.84;2618351;39;20529;-80
2022/05/28 05:48:37;;;;;;;1.50;1.40;;;;;;;18.46;62.46;94126.94;2618449;39;20654;-79
2022/05/28 05:51:27;;;;;;;1.97;1.87;;;;;;;19.21;60.83;94183.13;2618062;54;20156;-79
2022/05/28 05:54:34;;;;;;;1.60;1.50;;;;;;;19.12;63.50;94249.22;2618043;54;20152;-80
2022/05/28 05:57:27;;;;;;;;;;;;;;;;;;;;;
2022/05/28 06:03:01;;;;;;;4.17;2.20;;;;;;;17.77;62.98;94058.53;2618431;39;20515;-80
2022/05/28 06:05:36;;;;;;;1.83;1.73;;;;;;;18.03;62.49;94011.88;2618086;47;20152;-80
2022/05/28 06:11:34;;;;;;;2.45;2.25;;;;;;;18.74;59.93;94103.84;2617974;47;20204;-82
2022/05/28 06:14:12;;;;;;;3.20;2.90;;;;;;;18.31;60.74;94025.97;2618165;47;20665;-82
2022/05/28 06:16:50;;;;;;;3.37;2.20;;;;;;;19.12;60.14;94090.63;2618122;54;20172;-80
2022/05/28 06:19:40;;;;;;;4.30;2.15;;;;;;;19.06;60.23;94071.28;2618451;47;20204;-80
2022/05/28 06:22:28;;;;;;;6.22;1.73;;;;;;;19.01;60.61;94086.41;2618101;46;20191;-82
2022/05/28 06:25:25;;;;;;;8.35;3.10;;;;;;;18.91;60.50;94086.50;2617933;47;20156;-82
2022/05/28 06:37:23;;;;;;;2.55;2.35;;;;;;;19.70;59.91;94100.81;2617895;47;20215;-82
2022/05/28 06:42:58;;;;;;;2.47;2.00;;;;;;;21.11;57.23;94188.84;2617746;47;20152;-82
2022/05/28 06:45:43;;;;;;;2.35;2.20;;;;;;;20.66;56.99;94062.19;2618240;54;20160;-81
2022/05/28 06:48:44;;;;;;;2.28;2.13;;;;;;;21.49;56.84;94184.66;2617725;47;20145;-81
2022/05/28 06:57:28;;;;;;;2.15;2.05;;;;;;;21.32;57.71;94069.00;2617868;47;20172;-81
2022/05/28 07:00:12;;;;;;;2.40;2.20;;;;;;;22.51;58.64;94229.69;2617713;46;20141;-82
2022/05/28 07:03:24;;;;;;;2.03;1.85;;;;;;;22.67;56.75;94206.97;2617794;47;20143;-83
2022/05/28 07:05:55;;;;;;;2.17;2.00;;;;;;;22.60;55.97;94155.91;2617946;54;20404;-82
2022/05/28 07:09:24;;;;;;;;;;;;;;;;;;;;;
2022/05/28 07:12:58;;;;;;;;;;;;;;;;;;;;;
